Amanda, OH (43102)

7:52 AM EST on February 24, 2017 (GMT -0500)
Collegeview Acres | | Change Station

Elev 1115 ft 39.73 °N, 82.75 °W | Updated 28 seconds ago

Clear
Clear
58.4 °F
Feels Like 58.4 °F
N
10.0
Wind Variable Wind from SSE

Today
High -- | Low -- °F
--% Chance of Precip.
Yesterday
High -- | Low -- °F
Precip. -- in
Pressure 29.73 in
Visibility 10.0 miles
Clouds Clear
Dew Point 52 °F
Humidity 80%
Rainfall 0.00 in
Snow Depth Not available.
7:10 AM 6:17 PM
Waning Crescent, 5% visible
METAR KLHQ 241153Z AUTO 17008KT 10SM CLR 17/11 A2975 RMK AO2 SLP068 T01720111 10178 20156 58004
Pressure 29.73 in
Visibility 10.0 miles
Clouds Clear
Dew Point 52 °F
Humidity 80%
Rainfall 0.00 in
Snow Depth Not available.
7:10 AM 6:17 PM
Waning Crescent, 5% visible
METAR KLHQ 241153Z AUTO 17008KT 10SM CLR 17/11 A2975 RMK AO2 SLP068 T01720111 10178 20156 58004

Get Your Daily Forecast Email!

Thanks for signing up!

Be on the lookout for a verification email in your inbox.

You'll start receiving the daily forecast at 8 AM.

×

10-Day Weather Forecast

Almanac

Astronomy

Feb. 24, 2017 Rise Set
Actual Time
Civil Twilight
Nautical Twilight
Astronomical Twilight
Moon
Length of Visible Light
Length of Day
Tomorrow will be .
, % of the Moon is Illuminated

Today's Extremes

State Highs State Lows

Community

WunderPhotos

Upload Photos

1,962,540 photos uploaded!

WunderBlog® & News

Nearby

Air Quality

  Air Quality AQ Index Pollutant
Not available.

Snow Depth

Station Depth Elevation

Earthquake Activity

City Distance Mag. Time & Date
Minimum magnitude displayed is 2.5.

Coastal Water Temperatures

Place Temperature

Stations

Nearby Weather Stations

Station Location Temp. Windchill Dew Point Humidity Wind Precip. Elev Updated Type
                   

Watches & Warnings

There are currently no watches in effect.